createdAt,value
2017-09-25T00:00:20.190Z,34.33
2017-09-25T00:02:53.999Z,35.87
2017-09-25T00:05:27.711Z,37.67
2017-09-25T00:08:02.267Z,40.07
2017-09-25T00:10:35.979Z,40.33
2017-09-25T00:13:09.808Z,40.37
2017-09-25T00:15:43.672Z,39.63
2017-09-25T00:18:17.361Z,40.57
2017-09-25T00:20:52.036Z,44.30
2017-09-25T00:23:25.851Z,38.53
2017-09-25T00:25:59.698Z,36.13
2017-09-25T00:28:33.352Z,38.00
2017-09-25T00:31:08.093Z,33.00
2017-09-25T00:33:42.011Z,35.70
2017-09-25T00:36:16.624Z,35.27
2017-09-25T00:38:51.115Z,36.27
2017-09-25T00:41:24.839Z,36.93
2017-09-25T00:43:59.448Z,36.03
2017-09-25T00:46:34.004Z,38.33
2017-09-25T00:49:07.617Z,35.47
2017-09-25T00:51:41.436Z,37.57
2017-09-25T00:54:15.897Z,47.10
2017-09-25T00:56:49.725Z,36.80
2017-09-25T00:59:28.511Z,33.67
2017-09-25T01:02:14.224Z,35.17
2017-09-25T01:05:00.041Z,37.57
2017-09-25T01:07:34.553Z,35.53
2017-09-25T01:10:09.248Z,36.47
2017-09-25T01:12:43.065Z,34.30
2017-09-25T01:15:16.914Z,37.27
2017-09-25T01:17:50.737Z,35.90
2017-09-25T01:20:25.182Z,35.00
2017-09-25T01:22:58.940Z,33.93
2017-09-25T01:25:32.679Z,33.03
2017-09-25T01:28:07.242Z,36.30
2017-09-25T01:30:41.146Z,44.63
2017-09-25T01:33:15.574Z,37.47
2017-09-25T01:35:49.369Z,35.87
2017-09-25T01:38:23.275Z,37.40
2017-09-25T01:40:57.032Z,42.90
2017-09-25T01:43:31.624Z,37.63
2017-09-25T01:46:05.440Z,48.80
2017-09-25T01:48:39.313Z,39.47
2017-09-25T01:51:13.018Z,41.03
2017-09-25T01:53:48.972Z,36.80
2017-09-25T01:56:22.720Z,38.40
2017-09-25T01:58:56.534Z,41.77
2017-09-25T02:01:31.007Z,52.50
2017-09-25T02:04:04.736Z,37.80
2017-09-25T02:06:38.496Z,37.37
2017-09-25T02:09:12.272Z,37.43
2017-09-25T02:11:46.159Z,40.40
2017-09-25T02:14:19.940Z,40.10
2017-09-25T02:16:53.776Z,33.53
2017-09-25T02:19:27.564Z,37.23
2017-09-25T02:22:02.068Z,39.23
2017-09-25T02:24:35.800Z,42.80
2017-09-25T02:27:09.712Z,36.50
2017-09-25T02:29:44.333Z,34.27
2017-09-25T02:32:18.067Z,36.53
2017-09-25T02:34:52.775Z,36.40
2017-09-25T02:37:27.156Z,33.60
2017-09-25T02:40:00.932Z,36.67
2017-09-25T02:42:34.683Z,38.20
2017-09-25T02:45:08.483Z,41.87
2017-09-25T02:47:42.254Z,42.90
2017-09-25T02:50:16.938Z,38.90
2017-09-25T02:52:50.630Z,36.47
2017-09-25T02:55:24.574Z,34.60
2017-09-25T02:57:58.303Z,35.20
2017-09-25T03:00:32.085Z,39.13
2017-09-25T03:03:05.851Z,36.80
2017-09-25T03:05:39.604Z,41.03
2017-09-25T03:08:14.045Z,39.27
2017-09-25T03:10:48.696Z,42.87
2017-09-25T03:13:22.686Z,32.23
2017-09-25T03:15:57.934Z,35.87
2017-09-25T03:18:32.372Z,38.47
2017-09-25T03:21:06.110Z,40.80
2017-09-25T03:23:39.891Z,35.67
2017-09-25T03:26:13.666Z,39.87
2017-09-25T03:28:47.388Z,34.23
2017-09-25T03:31:21.247Z,43.13
2017-09-25T03:33:55.798Z,35.63
2017-09-25T03:36:30.342Z,37.43
2017-09-25T03:39:04.952Z,36.23
2017-09-25T03:41:39.494Z,37.90
2017-09-25T03:44:13.257Z,39.03
2017-09-25T03:46:47.146Z,45.43
2017-09-25T03:49:21.700Z,37.80
2017-09-25T03:51:56.597Z,36.20
2017-09-25T03:54:31.154Z,40.20
2017-09-25T03:57:04.929Z,42.00
2017-09-25T03:59:38.694Z,48.17
2017-09-25T04:02:12.560Z,41.97
2017-09-25T04:04:46.352Z,41.60
2017-09-25T04:07:20.258Z,41.83
2017-09-25T04:09:54.027Z,43.40
2017-09-25T04:12:27.837Z,38.17
2017-09-25T04:15:01.569Z,37.73
2017-09-25T04:17:36.263Z,51.73
2017-09-25T04:20:10.163Z,51.40
2017-09-25T04:22:43.896Z,43.73
2017-09-25T04:25:17.609Z,43.27
2017-09-25T04:27:51.309Z,42.50
2017-09-25T04:30:25.213Z,43.50
2017-09-25T04:32:59.122Z,45.93
2017-09-25T04:35:32.837Z,42.80
2017-09-25T04:38:07.414Z,42.67
2017-09-25T04:40:41.829Z,39.47
2017-09-25T04:43:15.693Z,38.13
2017-09-25T04:45:50.137Z,43.07
2017-09-25T04:48:23.894Z,46.47
2017-09-25T04:50:57.782Z,51.07
2017-09-25T04:53:31.637Z,46.73
2017-09-25T04:56:05.374Z,44.80
2017-09-25T04:58:39.291Z,58.40
2017-09-25T05:01:13.080Z,52.17
2017-09-25T05:03:46.921Z,47.03
2017-09-25T05:06:20.801Z,42.43
2017-09-25T05:08:54.532Z,49.60
2017-09-25T05:11:28.344Z,41.73
2017-09-25T05:14:02.974Z,48.87
2017-09-25T05:16:36.756Z,43.13
2017-09-25T05:19:10.501Z,43.93
2017-09-25T05:21:44.343Z,46.20
2017-09-25T05:24:18.918Z,43.13
2017-09-25T05:26:53.525Z,40.17
2017-09-25T05:29:27.272Z,43.77
2017-09-25T05:32:01.137Z,43.07
2017-09-25T05:34:34.944Z,42.27
2017-09-25T05:37:08.801Z,44.13
2017-09-25T05:39:42.573Z,46.67
2017-09-25T05:42:16.489Z,39.60
2017-09-25T05:44:50.171Z,42.77
2017-09-25T05:47:24.786Z,41.13
2017-09-25T05:49:58.501Z,40.30
2017-09-25T05:52:32.322Z,45.10
2017-09-25T05:55:06.037Z,39.40
2017-09-25T05:57:45.264Z,51.27
2017-09-25T06:00:19.069Z,50.10
2017-09-25T06:02:52.780Z,46.73
2017-09-25T06:05:26.700Z,43.57
2017-09-25T06:08:00.521Z,48.90
2017-09-25T06:10:35.085Z,46.90
2017-09-25T06:13:08.917Z,49.27
2017-09-25T06:15:42.760Z,56.53
2017-09-25T06:18:16.563Z,53.20
2017-09-25T06:20:50.459Z,56.87
2017-09-25T06:23:24.908Z,55.40
2017-09-25T06:25:58.797Z,62.53
2017-09-25T06:28:33.344Z,65.33
2017-09-25T06:31:07.054Z,64.60
2017-09-25T06:33:41.957Z,69.33
2017-09-25T06:36:15.775Z,71.33
2017-09-25T06:38:50.299Z,71.53
2017-09-25T06:41:24.133Z,75.30
2017-09-25T06:43:57.916Z,86.00
2017-09-25T06:46:31.775Z,77.70
2017-09-25T06:49:05.627Z,74.30
2017-09-25T06:51:39.516Z,80.83
2017-09-25T06:54:15.314Z,72.67
2017-09-25T06:56:49.068Z,69.00
2017-09-25T06:59:22.815Z,55.10
2017-09-25T07:01:57.475Z,64.13
2017-09-25T07:04:31.964Z,63.83
2017-09-25T07:07:06.509Z,59.00
2017-09-25T07:09:40.344Z,57.67
2017-09-25T07:12:14.106Z,50.23
2017-09-25T07:14:47.735Z,52.47
2017-09-25T07:17:21.565Z,62.97
2017-09-25T07:19:55.315Z,65.03
2017-09-25T07:22:29.126Z,71.87
2017-09-25T07:25:03.743Z,67.70
2017-09-25T07:27:40.094Z,67.10
2017-09-25T07:30:13.883Z,68.80
2017-09-25T07:32:47.782Z,76.67
2017-09-25T07:35:21.548Z,72.30
2017-09-25T07:37:55.489Z,73.73
2017-09-25T07:40:29.410Z,69.07
2017-09-25T07:43:03.200Z,70.83
2017-09-25T07:45:36.997Z,73.60
2017-09-25T07:48:11.609Z,82.17
2017-09-25T07:50:45.491Z,64.27
2017-09-25T07:53:19.265Z,70.03
2017-09-25T07:55:53.055Z,71.93
2017-09-25T07:58:26.916Z,67.57
2017-09-25T08:01:00.743Z,75.53
2017-09-25T08:03:34.537Z,70.00
2017-09-25T08:06:08.377Z,70.53
2017-09-25T08:08:42.959Z,62.03
2017-09-25T08:11:16.536Z,60.60
2017-09-25T08:13:50.352Z,63.20
2017-09-25T08:16:25.037Z,57.33
2017-09-25T08:18:59.633Z,61.20
2017-09-25T08:21:34.130Z,58.50
2017-09-25T08:24:07.996Z,58.60
2017-09-25T08:26:41.708Z,63.13
2017-09-25T08:29:15.525Z,58.40
2017-09-25T08:31:49.249Z,54.17
2017-09-25T08:34:23.004Z,66.40
2017-09-25T08:36:57.550Z,61.60
2017-09-25T08:39:32.098Z,62.37
2017-09-25T08:42:05.866Z,58.33
2017-09-25T08:44:40.544Z,62.33
2017-09-25T08:47:14.340Z,79.30
2017-09-25T08:49:48.147Z,59.95
2017-09-25T08:52:21.872Z,66.40
2017-09-25T08:54:55.663Z,55.47
2017-09-25T08:57:29.509Z,56.80
2017-09-25T09:00:03.196Z,63.07
2017-09-25T09:02:37.815Z,63.70
2017-09-25T09:05:11.572Z,65.13
2017-09-25T09:07:45.376Z,59.10
2017-09-25T09:10:19.916Z,54.87
2017-09-25T09:12:53.801Z,59.30
2017-09-25T09:15:27.552Z,52.57
2017-09-25T09:18:01.381Z,56.43
2017-09-25T09:20:35.193Z,52.87
2017-09-25T09:23:09.018Z,60.63
2017-09-25T09:25:42.826Z,55.70
2017-09-25T09:28:17.425Z,60.70
2017-09-25T09:30:51.128Z,62.33
2017-09-25T09:33:24.861Z,59.53
2017-09-25T09:35:58.636Z,57.33
2017-09-25T09:38:32.473Z,58.27
2017-09-25T09:41:06.357Z,56.47
2017-09-25T09:43:40.186Z,56.53
2017-09-25T09:46:13.995Z,70.73
2017-09-25T09:48:47.752Z,50.10
2017-09-25T09:51:22.290Z,55.00
2017-09-25T09:53:56.138Z,53.40
2017-09-25T09:56:29.903Z,53.57
2017-09-25T09:59:03.680Z,57.10
2017-09-25T10:01:38.826Z,59.07
2017-09-25T10:04:12.535Z,58.27
2017-09-25T10:06:46.316Z,54.77
2017-09-25T10:09:20.197Z,58.13
2017-09-25T10:11:53.975Z,54.77
2017-09-25T10:14:29.077Z,56.03
2017-09-25T10:17:02.796Z,53.20
2017-09-25T10:19:36.548Z,47.60
2017-09-25T10:22:10.277Z,48.03
2017-09-25T10:24:44.001Z,49.53
2017-09-25T10:27:17.784Z,49.33
2017-09-25T10:29:52.458Z,49.87
2017-09-25T10:32:27.030Z,48.90
2017-09-25T10:35:00.932Z,46.03
2017-09-25T10:37:34.786Z,48.73
2017-09-25T10:40:08.628Z,44.50
2017-09-25T10:42:42.392Z,48.10
2017-09-25T10:45:16.236Z,45.67
2017-09-25T10:47:50.132Z,45.40
2017-09-25T10:50:23.941Z,47.43
2017-09-25T10:52:57.772Z,41.10
2017-09-25T10:55:31.548Z,45.57
2017-09-25T10:58:05.353Z,47.80
2017-09-25T11:00:39.263Z,47.10
2017-09-25T11:03:13.097Z,48.20
2017-09-25T11:05:46.911Z,49.00
2017-09-25T11:08:20.645Z,44.60
2017-09-25T11:10:54.307Z,48.07
2017-09-25T11:13:28.066Z,48.47
2017-09-25T11:16:02.490Z,48.67
2017-09-25T11:18:36.360Z,48.00
2017-09-25T11:21:10.944Z,50.50
2017-09-25T11:23:44.715Z,49.53
2017-09-25T11:26:18.532Z,47.20
2017-09-25T11:28:53.140Z,29.87
2017-09-25T11:31:26.849Z,35.90
2017-09-25T11:34:00.780Z,35.40
2017-09-25T11:36:35.418Z,27.03
2017-09-25T11:39:09.286Z,25.10
2017-09-25T11:41:43.059Z,28.07
2017-09-25T11:44:16.788Z,26.27
2017-09-25T11:46:50.619Z,26.80
2017-09-25T11:49:25.558Z,25.23
2017-09-25T11:51:59.390Z,27.27
2017-09-25T11:54:33.173Z,27.73
2017-09-25T11:57:07.020Z,25.47
2017-09-25T11:59:40.828Z,29.10
2017-09-25T12:02:14.729Z,31.97
2017-09-25T12:04:48.535Z,28.97
2017-09-25T12:07:22.430Z,34.87
2017-09-25T12:09:56.333Z,39.47
2017-09-25T12:12:30.145Z,32.90
2017-09-25T12:15:03.931Z,35.87
2017-09-25T12:17:37.640Z,34.87
2017-09-25T12:20:11.347Z,39.27
2017-09-25T12:22:45.153Z,40.33
2017-09-25T12:25:19.004Z,44.87
2017-09-25T12:27:52.865Z,48.30
2017-09-25T12:30:26.669Z,44.80
2017-09-25T12:33:00.373Z,44.73
2017-09-25T12:35:34.962Z,46.10
2017-09-25T12:38:08.719Z,45.13
2017-09-25T12:40:43.317Z,50.17
2017-09-25T12:43:17.169Z,46.30
2017-09-25T12:45:50.897Z,45.77
2017-09-25T12:48:24.665Z,57.90
2017-09-25T12:50:58.451Z,49.60
2017-09-25T12:53:33.065Z,42.60
2017-09-25T12:56:07.556Z,44.00
2017-09-25T12:58:42.227Z,40.33
2017-09-25T13:01:16.017Z,39.83
2017-09-25T13:03:49.870Z,48.37
2017-09-25T13:06:23.585Z,22.47
2017-09-25T13:08:58.307Z,22.10
2017-09-25T13:11:32.109Z,20.13
2017-09-25T13:14:05.931Z,12.37
2017-09-25T13:16:39.655Z,13.40
2017-09-25T13:19:13.381Z,11.30
2017-09-25T13:21:47.090Z,16.10
2017-09-25T13:24:20.925Z,20.73
2017-09-25T13:26:54.703Z,18.30
2017-09-25T13:29:28.389Z,17.30
2017-09-25T13:32:02.908Z,19.93
2017-09-25T13:34:36.806Z,18.90
2017-09-25T13:37:10.562Z,19.10
2017-09-25T13:39:44.360Z,22.50
2017-09-25T13:42:18.105Z,21.80
2017-09-25T13:44:51.981Z,22.87
2017-09-25T13:47:25.781Z,23.53
2017-09-25T13:49:59.443Z,22.00
2017-09-25T13:52:33.315Z,21.93
2017-09-25T13:55:07.166Z,24.77
2017-09-25T13:57:41.020Z,26.00
2017-09-25T14:02:54.369Z,27.33
2017-09-25T14:05:28.091Z,24.23
2017-09-25T14:08:02.856Z,18.67
2017-09-25T14:10:36.675Z,20.70
2017-09-25T14:13:10.584Z,24.50
2017-09-25T14:15:44.503Z,25.53
2017-09-25T14:18:18.919Z,26.17
2017-09-25T14:20:52.834Z,20.53
2017-09-25T14:23:26.662Z,23.27
2017-09-25T14:26:00.427Z,19.17
2017-09-25T14:28:35.061Z,22.00
2017-09-25T14:31:08.823Z,20.57
2017-09-25T14:33:43.105Z,19.03
2017-09-25T14:36:17.089Z,20.83
2017-09-25T14:38:50.846Z,19.80
2017-09-25T14:41:25.292Z,19.77
2017-09-25T14:43:59.849Z,20.10
2017-09-25T14:46:33.700Z,20.63
2017-09-25T14:49:09.097Z,21.77
2017-09-25T14:51:42.876Z,21.10
2017-09-25T14:54:16.732Z,23.40
2017-09-25T14:56:50.519Z,18.80
2017-09-25T14:59:24.177Z,23.10
2017-09-25T15:01:57.908Z,20.77
2017-09-25T15:04:31.891Z,25.70
2017-09-25T15:07:05.599Z,25.43
2017-09-25T15:09:40.065Z,20.97
2017-09-25T15:12:13.764Z,26.10
2017-09-25T15:14:47.598Z,29.07
2017-09-25T15:17:21.459Z,22.37
2017-09-25T15:19:55.185Z,23.23
2017-09-25T15:22:28.885Z,22.93
2017-09-25T15:25:02.693Z,25.73
2017-09-25T15:27:36.358Z,24.50
2017-09-25T15:30:10.325Z,23.73
2017-09-25T15:32:45.013Z,25.83
2017-09-25T15:35:19.432Z,28.60
2017-09-25T15:37:53.402Z,25.33
2017-09-25T15:40:27.121Z,36.83
2017-09-25T15:43:00.917Z,27.47
2017-09-25T15:45:35.897Z,31.53
2017-09-25T15:48:10.210Z,27.80
2017-09-25T15:50:43.944Z,28.30
2017-09-25T15:53:17.721Z,32.80
2017-09-25T15:55:51.455Z,27.37
2017-09-25T15:58:26.626Z,29.33
2017-09-25T16:01:01.077Z,30.87
2017-09-25T16:03:34.757Z,27.40
2017-09-25T16:06:09.305Z,29.50
2017-09-25T16:08:42.994Z,28.57
2017-09-25T16:11:17.548Z,29.60
2017-09-25T16:13:51.561Z,28.80
2017-09-25T16:16:25.387Z,27.03
2017-09-25T16:18:59.126Z,29.27
2017-09-25T16:21:32.963Z,30.90
2017-09-25T16:24:06.768Z,31.30
2017-09-25T16:26:40.611Z,28.30
2017-09-25T16:29:14.383Z,31.80
2017-09-25T16:31:48.172Z,27.70
2017-09-25T16:34:21.905Z,27.60
2017-09-25T16:36:55.622Z,29.60
2017-09-25T16:39:29.413Z,31.63
2017-09-25T16:42:03.134Z,29.07
2017-09-25T16:44:36.924Z,30.20
2017-09-25T16:47:10.744Z,28.07
2017-09-25T16:49:44.475Z,29.37
2017-09-25T16:52:18.343Z,30.37
2017-09-25T16:54:52.940Z,31.63
2017-09-25T16:57:26.713Z,29.93
2017-09-25T17:00:00.563Z,32.73
2017-09-25T17:02:34.423Z,30.37
2017-09-25T17:05:08.136Z,26.47
2017-09-25T17:07:42.712Z,29.00
2017-09-25T17:10:16.516Z,26.33
2017-09-25T17:12:50.345Z,30.93
2017-09-25T17:15:24.198Z,35.27
2017-09-25T17:17:58.777Z,33.77
2017-09-25T17:20:32.664Z,63.60
2017-09-25T17:23:06.767Z,76.10
2017-09-25T17:25:40.568Z,31.47
2017-09-25T17:28:15.097Z,28.23
2017-09-25T17:30:49.517Z,31.07
2017-09-25T17:33:23.422Z,36.10
2017-09-25T17:35:57.312Z,32.80
2017-09-25T17:38:32.100Z,35.90
2017-09-25T17:41:05.884Z,32.33
2017-09-25T17:43:40.540Z,35.10
2017-09-25T17:46:14.368Z,35.70
2017-09-25T17:48:48.113Z,37.67
2017-09-25T17:51:21.849Z,35.77
2017-09-25T17:53:55.632Z,34.00
2017-09-25T17:56:30.117Z,33.30
2017-09-25T17:59:03.945Z,31.33
2017-09-25T18:01:37.739Z,31.47
2017-09-25T18:04:11.607Z,33.27
2017-09-25T18:06:45.374Z,32.63
2017-09-25T18:09:20.095Z,33.43
2017-09-25T18:11:53.951Z,47.13
2017-09-25T18:14:27.751Z,71.57
2017-09-25T18:17:01.462Z,142.87
2017-09-25T18:19:35.256Z,54.77
2017-09-25T18:22:09.803Z,57.67
2017-09-25T18:24:43.685Z,41.03
2017-09-25T18:27:17.418Z,34.73
2017-09-25T18:29:51.121Z,30.30
2017-09-25T18:32:24.770Z,35.90
2017-09-25T18:34:58.604Z,33.53
2017-09-25T18:37:33.089Z,34.53
2017-09-25T18:40:06.916Z,32.67
2017-09-25T18:42:41.401Z,37.33
2017-09-25T18:45:16.013Z,37.10
2017-09-25T18:47:49.685Z,46.50
2017-09-25T18:50:23.552Z,39.73
2017-09-25T18:52:57.366Z,41.50
2017-09-25T18:55:31.344Z,37.80
2017-09-25T18:58:05.081Z,35.80
2017-09-25T19:00:39.705Z,34.57
2017-09-25T19:03:13.591Z,34.53
2017-09-25T19:05:47.618Z,40.53
2017-09-25T19:08:21.316Z,37.27
2017-09-25T19:10:55.043Z,45.57
2017-09-25T19:13:28.852Z,37.67
2017-09-25T19:16:02.721Z,38.57
2017-09-25T19:18:36.449Z,38.00
2017-09-25T19:21:11.396Z,41.13
2017-09-25T19:23:45.035Z,38.70
2017-09-25T19:26:18.819Z,41.97
2017-09-25T19:28:53.371Z,38.47
2017-09-25T19:31:27.873Z,43.03
2017-09-25T19:34:01.587Z,39.67
2017-09-25T19:36:35.263Z,39.40
2017-09-25T19:39:09.721Z,38.47
2017-09-25T19:41:44.379Z,39.70
2017-09-25T19:44:18.209Z,40.73
2017-09-25T19:46:52.959Z,37.33
2017-09-25T19:49:46.411Z,39.33
2017-09-25T19:52:20.904Z,38.70
2017-09-25T19:55:05.527Z,39.87
2017-09-25T19:57:44.824Z,41.27
2017-09-25T20:00:18.585Z,34.10
2017-09-25T20:02:52.818Z,36.90
2017-09-25T20:05:26.417Z,42.50
2017-09-25T20:08:00.102Z,40.70
2017-09-25T20:10:50.401Z,46.73
2017-09-25T20:13:24.144Z,42.70
2017-09-25T20:16:17.778Z,45.50
2017-09-25T20:18:51.680Z,47.97
2017-09-25T20:21:25.483Z,34.40
2017-09-25T20:23:59.356Z,39.67
2017-09-25T20:26:33.096Z,35.37
2017-09-25T20:29:06.920Z,39.33
2017-09-25T20:31:41.533Z,35.87
2017-09-25T20:34:15.376Z,39.47
2017-09-25T20:36:49.029Z,48.93
2017-09-25T20:39:22.697Z,37.70
2017-09-25T20:41:57.065Z,40.10
2017-09-25T20:44:30.774Z,38.90
2017-09-25T20:47:04.688Z,34.57
2017-09-25T20:49:38.649Z,35.70
2017-09-25T20:52:12.368Z,43.83
2017-09-25T20:54:46.130Z,40.30
2017-09-25T20:57:20.000Z,39.90
2017-09-25T20:59:53.909Z,32.60
2017-09-25T21:02:27.632Z,34.53
2017-09-25T21:05:01.433Z,35.37
2017-09-25T21:07:35.153Z,34.40
2017-09-25T21:10:08.960Z,32.73
2017-09-25T21:12:42.732Z,40.40
2017-09-25T21:15:17.173Z,41.23
2017-09-25T21:17:50.878Z,38.30
2017-09-25T21:20:25.605Z,37.13
2017-09-25T21:22:59.476Z,38.93
2017-09-25T21:25:33.213Z,41.03
2017-09-25T21:28:07.809Z,37.37
2017-09-25T21:30:41.586Z,44.93
2017-09-25T21:33:15.348Z,40.70
2017-09-25T21:35:49.098Z,43.20
2017-09-25T21:38:22.973Z,50.77
2017-09-25T21:40:56.805Z,46.23
2017-09-25T21:43:30.608Z,41.17
2017-09-25T21:46:04.280Z,38.70
2017-09-25T21:48:38.161Z,40.50
2017-09-25T21:51:11.996Z,44.80
2017-09-25T21:53:46.597Z,47.37
2017-09-25T21:56:20.463Z,50.10
2017-09-25T21:58:54.286Z,45.90
2017-09-25T22:01:28.109Z,42.83
2017-09-25T22:04:02.657Z,47.93
2017-09-25T22:06:37.293Z,47.23
2017-09-25T22:09:11.185Z,44.07
2017-09-25T22:11:45.014Z,43.80
2017-09-25T22:14:19.709Z,45.10
2017-09-25T22:16:53.532Z,43.73
2017-09-25T22:19:27.362Z,44.57
2017-09-25T22:22:01.192Z,51.60
2017-09-25T22:24:34.957Z,52.63
2017-09-25T22:27:08.753Z,50.20
2017-09-25T22:29:42.439Z,50.80
2017-09-25T22:32:16.312Z,64.57
2017-09-25T22:34:50.133Z,53.23
2017-09-25T22:37:23.924Z,48.93
2017-09-25T22:39:59.285Z,48.27
2017-09-25T22:42:36.873Z,47.10
2017-09-25T22:45:10.597Z,48.07
2017-09-25T22:47:44.374Z,47.20
2017-09-25T22:50:18.260Z,44.70
2017-09-25T22:52:52.760Z,41.90
2017-09-25T22:55:26.617Z,45.73
2017-09-25T22:58:00.495Z,41.97
2017-09-25T23:00:34.285Z,52.97
2017-09-25T23:03:08.830Z,44.53
2017-09-25T23:05:57.471Z,45.60
2017-09-25T23:08:32.029Z,45.17
2017-09-25T23:11:07.247Z,49.17
2017-09-25T23:13:40.918Z,48.50
2017-09-25T23:16:15.426Z,51.83
2017-09-25T23:18:50.084Z,49.70
2017-09-25T23:21:23.975Z,45.87
2017-09-25T23:23:57.729Z,48.07
2017-09-25T23:26:31.445Z,46.77
2017-09-25T23:29:05.399Z,53.87
2017-09-25T23:31:42.841Z,50.43
2017-09-25T23:34:17.330Z,52.47
2017-09-25T23:36:51.101Z,54.90
2017-09-25T23:39:24.839Z,51.77
2017-09-25T23:41:58.649Z,47.57
2017-09-25T23:44:32.542Z,48.47
2017-09-25T23:47:07.143Z,47.03
2017-09-25T23:49:40.907Z,47.30
2017-09-25T23:52:14.684Z,46.70
2017-09-25T23:54:49.296Z,48.63
2017-09-25T23:57:23.110Z,45.00
2017-09-25T23:59:56.917Z,46.30
